Terminal Aerodrome Forecast
Issued by NWS Cleveland, OH

Home | Current Version | Previous Version | Text Only | Print | Product List | Glossary Off
Versions: 1 2 3 4 5 6 7 8 9 10 11 12 13 14 15 16 17 18 19

071
FTUS41 KCLE 160406 AAA
TAFYNG
TAF AMD
KYNG 160406Z 1604/1624 22012G20KT 5SM -SHRA OVC005
      TEMPO 1604/1608 6SM -DZ BR OVC008
     FM161100 27015G25KT P6SM OVC015
     FM161900 30015G25KT P6SM OVC015=

USA.gov is the U.S. government's official web portal to all federal, state and local government web resources and services.